page 6247 of 1004236 registered users

eBook PostsUsers

  1. 0gemini36cry registered @ 2013-03-02 00:08:52, last login @ 2013-03-02 00:08:52
  2. 0poundteller1 registered @ 2013-03-02 00:09:46, last login @ 2013-03-02 00:47:45
  3. 0velvet3japan registered @ 2013-03-02 00:11:30, last login @ 2013-03-02 00:11:30
  4. 0twinewheel80 registered @ 2013-03-02 00:11:40, last login @ 2013-03-02 00:39:04
  5. 0charitycars262 registered @ 2013-03-02 00:14:58, last login @ 2013-03-02 00:14:58
  6. 0operawash0 registered @ 2013-03-02 00:15:27, last login @ 2013-03-02 00:15:27
  7. 0donna70hockey registered @ 2013-03-02 00:15:33, last login @ 2013-03-02 00:47:36
  8. 0loss91time registered @ 2013-03-02 00:18:57, last login @ 2013-03-02 00:18:57
  9. 0aprilneon21 registered @ 2013-03-02 00:19:50, last login @ 2013-03-02 00:19:50
  10. 0hoteye29 registered @ 2013-03-02 00:20:10, last login @ 2013-03-02 00:46:14
  11. 0crab86roll registered @ 2013-03-02 00:20:48, last login @ 2013-03-02 00:20:48
  12. 0fiberpain7 registered @ 2013-03-02 00:22:12, last login @ 2013-03-02 01:00:04
  13. 0pimpleradio9 registered @ 2013-03-02 00:23:33, last login @ 2013-03-02 00:23:33
  14. 0korean12rose registered @ 2013-03-02 00:23:58, last login @ 2013-03-02 00:23:58
  15. 0sleeptip30 registered @ 2013-03-02 00:24:06, last login @ 2013-03-02 00:24:06
  16. 0town63beggar registered @ 2013-03-02 00:24:28, last login @ 2013-03-02 00:24:28
  17. 0orchid62voice registered @ 2013-03-02 00:25:04, last login @ 2013-03-02 00:25:04
  18. 0neon0fat registered @ 2013-03-02 00:25:18, last login @ 2013-03-02 00:25:18
  19. 0quit4lead registered @ 2013-03-02 00:25:40, last login @ 2013-03-02 00:25:40
  20. 0oven20stamp registered @ 2013-03-02 00:26:01, last login @ 2013-03-02 00:26:01
  21. 0monthbagel3 registered @ 2013-03-02 00:27:15, last login @ 2013-03-02 00:27:15
  22. 0attack43valley registered @ 2013-03-02 00:28:10, last login @ 2013-03-02 00:28:10
  23. 0panda9class registered @ 2013-03-02 00:29:10, last login @ 2013-03-02 00:29:10
  24. 0cymballunch5 registered @ 2013-03-02 00:30:40, last login @ 2013-03-02 00:30:40
  25. 0karateroof59 registered @ 2013-03-02 00:31:20, last login @ 2013-03-02 00:31:20
  26. 0gate7spoon registered @ 2013-03-02 00:31:47, last login @ 2013-03-02 00:31:47
  27. 0temperplane1 registered @ 2013-03-02 00:33:52, last login @ 2013-03-02 00:33:52
  28. 0mouthsex8 registered @ 2013-03-02 00:34:13, last login @ 2013-03-02 00:34:13
  29. 0skinflute1 registered @ 2013-03-02 00:34:39, last login @ 2013-03-02 00:34:39
  30. 0manroof04 registered @ 2013-03-02 00:34:42, last login @ 2013-03-02 00:34:42
  31. 0dashedger71 registered @ 2013-03-02 00:35:24, last login @ 2013-03-02 00:35:24
  32. 0van18wrench registered @ 2013-03-02 00:35:26, last login @ 2013-03-02 00:35:26
  33. 0skillcrack8 registered @ 2013-03-02 00:36:07, last login @ 2013-03-02 00:36:07
  34. 0bushroom3 registered @ 2013-03-02 00:36:33, last login @ 2013-03-02 00:36:33
  35. 0dimple36peru registered @ 2013-03-02 00:37:41, last login @ 2013-03-02 00:53:06
  36. 0yachtnews9 registered @ 2013-03-02 00:39:39, last login @ 2013-03-02 00:39:39
  37. 0icicle42party registered @ 2013-03-02 00:42:44, last login @ 2013-03-02 00:42:44
  38. 0drugteeth0 registered @ 2013-03-02 00:42:48, last login @ 2013-03-02 01:00:44
  39. 0dryseeder26 registered @ 2013-03-02 00:43:37, last login @ 2013-03-02 01:00:39
  40. 0peru15moat registered @ 2013-03-02 00:43:51, last login @ 2013-03-02 00:43:51
  41. 0rod7weight registered @ 2013-03-02 00:45:26, last login @ 2013-03-02 00:45:26
  42. 0spot0ball registered @ 2013-03-02 00:45:44, last login @ 2013-03-02 00:45:44
  43. 0window9weapon registered @ 2013-03-02 00:48:23, last login @ 2013-03-02 00:59:22
  44. 0cent53ash registered @ 2013-03-02 00:49:12, last login @ 2013-03-02 00:49:12
  45. 0paint51feet registered @ 2013-03-02 00:49:14, last login @ 2013-03-02 00:49:14
  46. 0lace34gender registered @ 2013-03-02 00:51:13, last login @ 2013-03-02 00:51:13
  47. 0agesilk78 registered @ 2013-03-02 00:52:09, last login @ 2013-03-02 00:52:09
  48. 0plain96bengal registered @ 2013-03-02 00:52:25, last login @ 2013-03-02 00:52:25
  49. 0mile3dew registered @ 2013-03-02 00:53:02, last login @ 2013-03-02 00:53:02
  50. 0actionmonday34 registered @ 2013-03-02 00:53:13, last login @ 2013-03-02 00:53:13
  51. 0cod28sofa registered @ 2013-03-02 00:54:10, last login @ 2013-03-02 00:54:10
  52. 0augustclam43 registered @ 2013-03-02 00:54:11, last login @ 2013-03-02 00:54:11
  53. 0threadfrog2 registered @ 2013-03-02 00:54:25, last login @ 2013-03-02 00:54:25
  54. 0blousegrouse1 registered @ 2013-03-02 00:55:21, last login @ 2013-03-02 00:55:21
  55. 0driver0cold registered @ 2013-03-02 00:55:29, last login @ 2013-03-02 00:55:29
  56. 0rice23chime registered @ 2013-03-02 00:55:52, last login @ 2013-03-02 00:55:52
  57. 0blockhockey66 registered @ 2013-03-02 00:56:55, last login @ 2013-03-02 00:56:55
  58. 0side73ball registered @ 2013-03-02 00:57:41, last login @ 2013-03-02 00:57:41
  59. 0bluetennis65 registered @ 2013-03-02 00:59:23, last login @ 2013-03-02 00:59:23
  60. 0scent76pike registered @ 2013-03-02 00:59:44, last login @ 2013-03-02 00:59:44
  61. 0raven7puppy registered @ 2013-03-02 01:01:11, last login @ 2013-03-02 01:01:11
  62. 0harborokra0 registered @ 2013-03-02 01:01:15, last login @ 2013-03-02 01:01:15
  63. 0shoe74park registered @ 2013-03-02 01:03:06, last login @ 2013-03-02 01:03:06
  64. 0tonjump54 registered @ 2013-03-02 01:04:02, last login @ 2013-03-02 01:04:02
  65. 0iciclechess22 registered @ 2013-03-02 01:04:32, last login @ 2013-03-02 01:04:32
  66. 0sensefowl56 registered @ 2013-03-02 01:04:46, last login @ 2013-03-02 01:04:46
  67. 0tenorsleep4 registered @ 2013-03-02 01:05:28, last login @ 2013-03-02 01:05:28
  68. 0cameltown25 registered @ 2013-03-02 01:07:58, last login @ 2013-03-02 01:07:58
  69. 0toptent2 registered @ 2013-03-02 01:13:34, last login @ 2013-03-02 01:13:34
  70. 0copy48forest registered @ 2013-03-02 01:14:37, last login @ 2013-03-02 01:14:37
  71. 0sweets4advice registered @ 2013-03-02 01:15:00, last login @ 2013-03-02 01:15:00
  72. 0breath3litter registered @ 2013-03-02 01:15:01, last login @ 2013-03-02 01:35:47
  73. 0fork0swing registered @ 2013-03-02 01:18:44, last login @ 2013-03-02 01:18:44
  74. 0cake04weasel registered @ 2013-03-02 01:18:50, last login @ 2013-03-02 01:18:50
  75. 0iraqattic6 registered @ 2013-03-02 01:19:46, last login @ 2013-03-02 01:19:46
  76. 0africavinyl43 registered @ 2013-03-02 01:20:10, last login @ 2013-03-02 01:20:10
  77. 0monday64french registered @ 2013-03-02 01:20:17, last login @ 2013-03-02 01:35:58
  78. 0chivestorm37 registered @ 2013-03-02 01:21:19, last login @ 2013-03-02 01:21:19
  79. 0cactusquit5 registered @ 2013-03-02 01:21:29, last login @ 2013-03-02 01:21:29
  80. 0file9dew registered @ 2013-03-02 01:21:53, last login @ 2013-03-02 01:21:53
  81. 0suedellama3 registered @ 2013-03-02 01:22:27, last login @ 2013-03-02 01:22:27
  82. 0powder68sack registered @ 2013-03-02 01:22:32, last login @ 2013-03-02 01:22:32
  83. 0julygander53 registered @ 2013-03-02 01:22:50, last login @ 2013-03-02 01:22:50
  84. 0rochelletorres registered @ 2013-03-02 01:22:57, last login @ 2013-03-02 01:22:57
  85. 0clouddesire85 registered @ 2013-03-02 01:23:36, last login @ 2013-03-02 01:43:49
  86. 0feetswitch8 registered @ 2013-03-02 01:24:53, last login @ 2013-03-02 01:24:53
  87. 0smoke81beaver registered @ 2013-03-02 01:25:44, last login @ 2013-03-02 01:25:44
  88. 0junemarble14 registered @ 2013-03-02 01:26:38, last login @ 2013-03-02 01:34:59
  89. 0doctor9play registered @ 2013-03-02 01:29:13, last login @ 2013-03-02 01:29:13
  90. 0blow1whip registered @ 2013-03-02 01:29:18, last login @ 2013-03-02 01:29:18
  91. 0news59pig registered @ 2013-03-02 01:32:10, last login @ 2013-03-02 01:45:52
  92. 0conga06shield registered @ 2013-03-02 01:33:16, last login @ 2013-03-02 01:33:16
  93. 0lunchjeep9 registered @ 2013-03-02 01:33:59, last login @ 2013-03-02 01:52:35
  94. 0washer51green registered @ 2013-03-02 01:38:10, last login @ 2013-03-02 01:38:10
  95. 0cd6day registered @ 2013-03-02 01:38:11, last login @ 2013-03-02 01:38:11
  96. 0yoke0moon registered @ 2013-03-02 01:40:22, last login @ 2013-03-02 01:40:22
  97. 0maskgrey39 registered @ 2013-03-02 01:40:49, last login @ 2013-03-02 01:40:49
  98. 0pinenepal58 registered @ 2013-03-02 01:40:57, last login @ 2013-03-02 01:40:57
  99. 0dahlia95beetle registered @ 2013-03-02 01:41:38, last login @ 2013-03-02 01:41:38
  100. 0bagel7gun registered @ 2013-03-02 01:45:03, last login @ 2013-03-02 01:45:03
  101. 0risksyrup3 registered @ 2013-03-02 01:45:52, last login @ 2013-03-02 01:45:52

More...

[6257] [6256] [6255] [6254] [6253] [6252] [6251] [6250] [6249] [6248] [6247] [6246] [6245] [6244] [6243] [6242] [6241] [6240] [6239] [6238] ...[1]
Back to Top